sensor_id;sensor_type;location;lat;lon;timestamp;temperature;humidity
5508;DHT22;2776;51.046;6.772;2023-09-12T00:00:04;21.10;99.90
5508;DHT22;2776;51.046;6.772;2023-09-12T00:02:31;21.00;99.90
5508;DHT22;2776;51.046;6.772;2023-09-12T00:04:58;21.00;99.90
5508;DHT22;2776;51.046;6.772;2023-09-12T00:07:25;21.00;99.90
5508;DHT22;2776;51.046;6.772;2023-09-12T00:09:52;20.90;99.90
5508;DHT22;2776;51.046;6.772;2023-09-12T00:12:22;20.90;99.90
5508;DHT22;2776;51.046;6.772;2023-09-12T00:14:49;20.90;99.90
5508;DHT22;2776;51.046;6.772;2023-09-12T00:17:17;20.90;99.90
5508;DHT22;2776;51.046;6.772;2023-09-12T00:19:44;20.80;99.90
5508;DHT22;2776;51.046;6.772;2023-09-12T00:22:11;20.90;99.90
5508;DHT22;2776;51.046;6.772;2023-09-12T00:24:38;20.90;99.90
5508;DHT22;2776;51.046;6.772;2023-09-12T00:27:05;21.00;99.90
5508;DHT22;2776;51.046;6.772;2023-09-12T00:29:31;21.00;99.90
5508;DHT22;2776;51.046;6.772;2023-09-12T00:31:58;21.00;99.90
5508;DHT22;2776;51.046;6.772;2023-09-12T00:34:26;21.00;99.90
5508;DHT22;2776;51.046;6.772;2023-09-12T00:36:53;21.00;99.90
5508;DHT22;2776;51.046;6.772;2023-09-12T00:39:20;21.00;99.90
5508;DHT22;2776;51.046;6.772;2023-09-12T00:41:46;21.00;99.90
5508;DHT22;2776;51.046;6.772;2023-09-12T00:44:13;21.00;99.90
5508;DHT22;2776;51.046;6.772;2023-09-12T00:46:40;21.00;99.90
5508;DHT22;2776;51.046;6.772;2023-09-12T00:49:08;20.90;99.90
5508;DHT22;2776;51.046;6.772;2023-09-12T00:51:36;20.90;99.90
5508;DHT22;2776;51.046;6.772;2023-09-12T00:54:04;20.80;99.90
5508;DHT22;2776;51.046;6.772;2023-09-12T00:56:31;20.80;99.90
5508;DHT22;2776;51.046;6.772;2023-09-12T00:58:58;20.70;99.90
5508;DHT22;2776;51.046;6.772;2023-09-12T01:01:25;20.70;99.90
5508;DHT22;2776;51.046;6.772;2023-09-12T01:03:52;20.70;99.90
5508;DHT22;2776;51.046;6.772;2023-09-12T01:06:19;20.70;99.90
5508;DHT22;2776;51.046;6.772;2023-09-12T01:08:49;20.70;99.90
5508;DHT22;2776;51.046;6.772;2023-09-12T01:11:17;20.60;99.90
5508;DHT22;2776;51.046;6.772;2023-09-12T01:13:44;20.60;99.90
5508;DHT22;2776;51.046;6.772;2023-09-12T01:16:10;20.60;99.90
5508;DHT22;2776;51.046;6.772;2023-09-12T01:18:37;20.60;99.90
5508;DHT22;2776;51.046;6.772;2023-09-12T01:21:38;20.60;99.90
5508;DHT22;2776;51.046;6.772;2023-09-12T01:24:24;20.50;99.90
5508;DHT22;2776;51.046;6.772;2023-09-12T01:27:13;20.40;99.90
5508;DHT22;2776;51.046;6.772;2023-09-12T01:29:42;20.40;99.90
5508;DHT22;2776;51.046;6.772;2023-09-12T01:32:10;20.40;99.90
5508;DHT22;2776;51.046;6.772;2023-09-12T01:34:37;20.40;99.90
5508;DHT22;2776;51.046;6.772;2023-09-12T01:37:04;20.40;99.90
5508;DHT22;2776;51.046;6.772;2023-09-12T01:39:31;20.40;99.90
5508;DHT22;2776;51.046;6.772;2023-09-12T01:41:59;20.30;99.90
5508;DHT22;2776;51.046;6.772;2023-09-12T01:44:28;20.30;99.90
5508;DHT22;2776;51.046;6.772;2023-09-12T01:46:59;20.40;99.90
5508;DHT22;2776;51.046;6.772;2023-09-12T01:49:28;20.30;99.90
5508;DHT22;2776;51.046;6.772;2023-09-12T01:51:56;20.40;99.90
5508;DHT22;2776;51.046;6.772;2023-09-12T01:54:24;20.30;99.90
5508;DHT22;2776;51.046;6.772;2023-09-12T01:56:52;20.40;99.90
5508;DHT22;2776;51.046;6.772;2023-09-12T01:59:23;20.40;99.90
5508;DHT22;2776;51.046;6.772;2023-09-12T02:01:51;20.40;99.90
5508;DHT22;2776;51.046;6.772;2023-09-12T02:04:18;20.40;99.90
5508;DHT22;2776;51.046;6.772;2023-09-12T02:06:45;20.40;99.90
5508;DHT22;2776;51.046;6.772;2023-09-12T02:09:11;20.30;99.90
5508;DHT22;2776;51.046;6.772;2023-09-12T02:11:38;20.30;99.90
5508;DHT22;2776;51.046;6.772;2023-09-12T02:14:05;20.30;99.90
5508;DHT22;2776;51.046;6.772;2023-09-12T02:16:32;20.30;99.90
5508;DHT22;2776;51.046;6.772;2023-09-12T02:19:00;20.30;99.90
5508;DHT22;2776;51.046;6.772;2023-09-12T02:21:26;20.20;99.90
5508;DHT22;2776;51.046;6.772;2023-09-12T02:23:53;20.20;99.90
5508;DHT22;2776;51.046;6.772;2023-09-12T02:26:20;20.20;99.90
5508;DHT22;2776;51.046;6.772;2023-09-12T02:28:47;20.20;99.90
5508;DHT22;2776;51.046;6.772;2023-09-12T02:31:13;20.30;99.90
5508;DHT22;2776;51.046;6.772;2023-09-12T02:33:40;20.30;99.90
5508;DHT22;2776;51.046;6.772;2023-09-12T02:36:08;20.30;99.90
5508;DHT22;2776;51.046;6.772;2023-09-12T02:38:35;20.30;99.90
5508;DHT22;2776;51.046;6.772;2023-09-12T02:41:02;20.30;99.90
5508;DHT22;2776;51.046;6.772;2023-09-12T02:43:29;20.30;99.90
5508;DHT22;2776;51.046;6.772;2023-09-12T02:45:55;20.30;99.90
5508;DHT22;2776;51.046;6.772;2023-09-12T02:48:22;20.40;99.90
5508;DHT22;2776;51.046;6.772;2023-09-12T02:50:49;20.40;99.90
5508;DHT22;2776;51.046;6.772;2023-09-12T02:53:17;20.40;99.90
5508;DHT22;2776;51.046;6.772;2023-09-12T02:55:43;20.50;99.90
5508;DHT22;2776;51.046;6.772;2023-09-12T02:58:10;20.50;99.90
5508;DHT22;2776;51.046;6.772;2023-09-12T03:00:38;20.50;99.90
5508;DHT22;2776;51.046;6.772;2023-09-12T03:03:06;20.60;99.90
5508;DHT22;2776;51.046;6.772;2023-09-12T03:05:34;20.50;99.90
5508;DHT22;2776;51.046;6.772;2023-09-12T03:08:01;20.50;99.90
5508;DHT22;2776;51.046;6.772;2023-09-12T03:10:29;20.50;99.90
5508;DHT22;2776;51.046;6.772;2023-09-12T03:12:56;20.60;99.90
5508;DHT22;2776;51.046;6.772;2023-09-12T03:15:22;20.60;99.90
5508;DHT22;2776;51.046;6.772;2023-09-12T03:17:49;20.60;99.90
5508;DHT22;2776;51.046;6.772;2023-09-12T03:20:16;20.60;99.90
5508;DHT22;2776;51.046;6.772;2023-09-12T03:22:43;20.60;99.90
5508;DHT22;2776;51.046;6.772;2023-09-12T03:25:10;20.50;99.90
5508;DHT22;2776;51.046;6.772;2023-09-12T03:27:38;20.60;99.90
5508;DHT22;2776;51.046;6.772;2023-09-12T03:30:06;20.60;99.90
5508;DHT22;2776;51.046;6.772;2023-09-12T03:32:33;20.60;99.90
5508;DHT22;2776;51.046;6.772;2023-09-12T03:35:00;20.50;99.90
5508;DHT22;2776;51.046;6.772;2023-09-12T03:37:26;20.60;99.90
5508;DHT22;2776;51.046;6.772;2023-09-12T03:39:54;20.60;99.90
5508;DHT22;2776;51.046;6.772;2023-09-12T03:42:20;20.50;99.90
5508;DHT22;2776;51.046;6.772;2023-09-12T03:44:49;20.50;99.90
5508;DHT22;2776;51.046;6.772;2023-09-12T03:47:15;20.50;99.90
5508;DHT22;2776;51.046;6.772;2023-09-12T03:49:42;20.50;99.90
5508;DHT22;2776;51.046;6.772;2023-09-12T03:52:09;20.50;99.90
5508;DHT22;2776;51.046;6.772;2023-09-12T03:54:35;20.50;99.90
5508;DHT22;2776;51.046;6.772;2023-09-12T03:57:03;20.50;99.90
5508;DHT22;2776;51.046;6.772;2023-09-12T03:59:30;20.60;99.90
5508;DHT22;2776;51.046;6.772;2023-09-12T04:01:58;20.60;99.90
5508;DHT22;2776;51.046;6.772;2023-09-12T04:04:25;20.60;99.90
5508;DHT22;2776;51.046;6.772;2023-09-12T04:06:51;20.50;99.90
5508;DHT22;2776;51.046;6.772;2023-09-12T04:09:18;20.60;99.90
5508;DHT22;2776;51.046;6.772;2023-09-12T04:11:45;20.60;99.90
5508;DHT22;2776;51.046;6.772;2023-09-12T04:14:12;20.60;99.90
5508;DHT22;2776;51.046;6.772;2023-09-12T04:16:39;20.60;99.90
5508;DHT22;2776;51.046;6.772;2023-09-12T04:19:07;20.60;99.90
5508;DHT22;2776;51.046;6.772;2023-09-12T04:21:33;20.50;99.90
5508;DHT22;2776;51.046;6.772;2023-09-12T04:24:00;20.60;99.90
5508;DHT22;2776;51.046;6.772;2023-09-12T04:26:27;20.60;99.90
5508;DHT22;2776;51.046;6.772;2023-09-12T04:28:54;20.60;99.90
5508;DHT22;2776;51.046;6.772;2023-09-12T04:31:20;20.60;99.90
5508;DHT22;2776;51.046;6.772;2023-09-12T04:33:47;20.60;99.90
5508;DHT22;2776;51.046;6.772;2023-09-12T04:36:15;20.60;99.90
5508;DHT22;2776;51.046;6.772;2023-09-12T04:38:42;20.60;99.90
5508;DHT22;2776;51.046;6.772;2023-09-12T04:41:11;20.70;99.90
5508;DHT22;2776;51.046;6.772;2023-09-12T04:43:40;20.70;99.90
5508;DHT22;2776;51.046;6.772;2023-09-12T04:46:08;20.70;99.90
5508;DHT22;2776;51.046;6.772;2023-09-12T04:48:35;20.70;99.90
5508;DHT22;2776;51.046;6.772;2023-09-12T04:51:02;20.70;99.90
5508;DHT22;2776;51.046;6.772;2023-09-12T04:53:30;20.60;99.90
5508;DHT22;2776;51.046;6.772;2023-09-12T04:56:00;20.60;99.90
5508;DHT22;2776;51.046;6.772;2023-09-12T04:58:27;20.60;99.90
5508;DHT22;2776;51.046;6.772;2023-09-12T05:00:54;20.50;99.90
5508;DHT22;2776;51.046;6.772;2023-09-12T05:03:21;20.50;99.90
5508;DHT22;2776;51.046;6.772;2023-09-12T05:05:48;20.50;99.90
5508;DHT22;2776;51.046;6.772;2023-09-12T05:08:15;20.50;99.90
5508;DHT22;2776;51.046;6.772;2023-09-12T05:10:45;20.50;99.90
5508;DHT22;2776;51.046;6.772;2023-09-12T05:13:12;20.40;99.90
5508;DHT22;2776;51.046;6.772;2023-09-12T05:15:40;20.40;99.90
5508;DHT22;2776;51.046;6.772;2023-09-12T05:18:07;20.40;99.90
5508;DHT22;2776;51.046;6.772;2023-09-12T05:20:34;20.40;99.90
5508;DHT22;2776;51.046;6.772;2023-09-12T05:23:01;20.40;99.90
5508;DHT22;2776;51.046;6.772;2023-09-12T05:25:28;20.40;99.90
5508;DHT22;2776;51.046;6.772;2023-09-12T05:27:56;20.40;99.90
5508;DHT22;2776;51.046;6.772;2023-09-12T05:30:23;20.40;99.90
5508;DHT22;2776;51.046;6.772;2023-09-12T05:32:50;20.40;99.90
5508;DHT22;2776;51.046;6.772;2023-09-12T05:35:17;20.50;99.90
5508;DHT22;2776;51.046;6.772;2023-09-12T05:37:43;20.50;99.90
5508;DHT22;2776;51.046;6.772;2023-09-12T05:40:10;20.50;99.90
5508;DHT22;2776;51.046;6.772;2023-09-12T05:42:37;20.40;99.90
5508;DHT22;2776;51.046;6.772;2023-09-12T05:45:06;20.50;99.90
5508;DHT22;2776;51.046;6.772;2023-09-12T05:47:33;20.40;99.90
5508;DHT22;2776;51.046;6.772;2023-09-12T05:50:00;20.40;99.90
5508;DHT22;2776;51.046;6.772;2023-09-12T05:52:30;20.50;99.90
5508;DHT22;2776;51.046;6.772;2023-09-12T05:54:56;20.50;99.90
5508;DHT22;2776;51.046;6.772;2023-09-12T05:57:23;20.50;99.90
5508;DHT22;2776;51.046;6.772;2023-09-12T05:59:50;20.60;99.90
5508;DHT22;2776;51.046;6.772;2023-09-12T06:02:18;20.60;99.90
5508;DHT22;2776;51.046;6.772;2023-09-12T06:04:45;20.70;99.90
5508;DHT22;2776;51.046;6.772;2023-09-12T06:07:11;20.70;99.90
5508;DHT22;2776;51.046;6.772;2023-09-12T06:09:38;20.90;99.90
5508;DHT22;2776;51.046;6.772;2023-09-12T06:12:06;20.90;99.90
5508;DHT22;2776;51.046;6.772;2023-09-12T06:14:33;21.00;99.90
5508;DHT22;2776;51.046;6.772;2023-09-12T06:16:59;21.10;99.90
5508;DHT22;2776;51.046;6.772;2023-09-12T06:19:27;21.20;99.90
5508;DHT22;2776;51.046;6.772;2023-09-12T06:21:54;21.30;99.90
5508;DHT22;2776;51.046;6.772;2023-09-12T06:24:21;21.50;99.90
5508;DHT22;2776;51.046;6.772;2023-09-12T06:26:49;21.70;99.90
5508;DHT22;2776;51.046;6.772;2023-09-12T06:29:15;21.90;99.90
5508;DHT22;2776;51.046;6.772;2023-09-12T06:31:42;21.90;99.90
5508;DHT22;2776;51.046;6.772;2023-09-12T06:34:09;22.00;99.90
5508;DHT22;2776;51.046;6.772;2023-09-12T06:36:38;22.00;99.90
5508;DHT22;2776;51.046;6.772;2023-09-12T06:39:06;22.00;99.90
5508;DHT22;2776;51.046;6.772;2023-09-12T06:41:33;22.20;99.90
5508;DHT22;2776;51.046;6.772;2023-09-12T06:44:00;22.30;99.90
5508;DHT22;2776;51.046;6.772;2023-09-12T06:46:28;22.40;99.90
5508;DHT22;2776;51.046;6.772;2023-09-12T06:48:55;22.50;99.90
5508;DHT22;2776;51.046;6.772;2023-09-12T06:51:24;22.60;99.90
5508;DHT22;2776;51.046;6.772;2023-09-12T06:53:52;22.70;99.90
5508;DHT22;2776;51.046;6.772;2023-09-12T06:56:19;22.70;99.90
5508;DHT22;2776;51.046;6.772;2023-09-12T06:58:47;22.70;99.90
5508;DHT22;2776;51.046;6.772;2023-09-12T07:01:13;22.60;99.90
5508;DHT22;2776;51.046;6.772;2023-09-12T07:03:40;22.60;99.90
5508;DHT22;2776;51.046;6.772;2023-09-12T07:06:07;22.60;99.90
5508;DHT22;2776;51.046;6.772;2023-09-12T07:08:34;22.60;99.90
5508;DHT22;2776;51.046;6.772;2023-09-12T07:11:04;22.60;99.90
5508;DHT22;2776;51.046;6.772;2023-09-12T07:13:32;22.70;99.90
5508;DHT22;2776;51.046;6.772;2023-09-12T07:15:59;22.70;99.90
5508;DHT22;2776;51.046;6.772;2023-09-12T07:18:29;22.80;99.90
5508;DHT22;2776;51.046;6.772;2023-09-12T07:20:59;22.90;99.90
5508;DHT22;2776;51.046;6.772;2023-09-12T07:23:26;22.90;99.90
5508;DHT22;2776;51.046;6.772;2023-09-12T07:25:54;23.00;99.90
5508;DHT22;2776;51.046;6.772;2023-09-12T07:28:24;23.10;99.90
5508;DHT22;2776;51.046;6.772;2023-09-12T07:30:51;23.30;99.90
5508;DHT22;2776;51.046;6.772;2023-09-12T07:33:18;23.40;99.90
5508;DHT22;2776;51.046;6.772;2023-09-12T07:35:45;23.60;99.90
5508;DHT22;2776;51.046;6.772;2023-09-12T07:38:13;23.90;99.90
5508;DHT22;2776;51.046;6.772;2023-09-12T07:40:40;24.40;99.90
5508;DHT22;2776;51.046;6.772;2023-09-12T07:43:07;25.20;99.90
5508;DHT22;2776;51.046;6.772;2023-09-12T07:45:36;25.90;99.90
5508;DHT22;2776;51.046;6.772;2023-09-12T07:48:04;26.50;99.90
5508;DHT22;2776;51.046;6.772;2023-09-12T07:50:31;26.60;99.90
5508;DHT22;2776;51.046;6.772;2023-09-12T07:52:58;26.80;99.90
5508;DHT22;2776;51.046;6.772;2023-09-12T07:55:25;26.80;99.90
5508;DHT22;2776;51.046;6.772;2023-09-12T07:57:55;26.80;99.90
5508;DHT22;2776;51.046;6.772;2023-09-12T08:00:22;26.60;99.90
5508;DHT22;2776;51.046;6.772;2023-09-12T08:02:50;26.40;99.90
5508;DHT22;2776;51.046;6.772;2023-09-12T08:05:17;26.20;99.90
5508;DHT22;2776;51.046;6.772;2023-09-12T08:07:44;26.20;99.90
5508;DHT22;2776;51.046;6.772;2023-09-12T08:10:11;25.90;99.90
5508;DHT22;2776;51.046;6.772;2023-09-12T08:12:38;25.90;99.90
5508;DHT22;2776;51.046;6.772;2023-09-12T08:15:07;25.90;99.90
5508;DHT22;2776;51.046;6.772;2023-09-12T08:17:33;25.80;99.90
5508;DHT22;2776;51.046;6.772;2023-09-12T08:20:02;25.70;99.90
5508;DHT22;2776;51.046;6.772;2023-09-12T08:22:29;25.70;99.90
5508;DHT22;2776;51.046;6.772;2023-09-12T08:24:56;25.50;99.90
5508;DHT22;2776;51.046;6.772;2023-09-12T08:27:22;25.40;99.90
5508;DHT22;2776;51.046;6.772;2023-09-12T08:29:49;25.30;99.90
5508;DHT22;2776;51.046;6.772;2023-09-12T08:32:16;25.10;99.90
5508;DHT22;2776;51.046;6.772;2023-09-12T08:34:42;25.10;99.90
5508;DHT22;2776;51.046;6.772;2023-09-12T08:37:10;25.00;99.90
5508;DHT22;2776;51.046;6.772;2023-09-12T08:39:41;24.90;99.90
5508;DHT22;2776;51.046;6.772;2023-09-12T08:42:12;24.80;99.90
5508;DHT22;2776;51.046;6.772;2023-09-12T08:44:39;24.80;99.90
5508;DHT22;2776;51.046;6.772;2023-09-12T08:47:08;24.90;99.90
5508;DHT22;2776;51.046;6.772;2023-09-12T08:49:35;24.80;99.90
5508;DHT22;2776;51.046;6.772;2023-09-12T08:52:03;24.90;99.90
5508;DHT22;2776;51.046;6.772;2023-09-12T08:54:31;25.00;99.90
5508;DHT22;2776;51.046;6.772;2023-09-12T08:56:58;25.10;99.90
5508;DHT22;2776;51.046;6.772;2023-09-12T08:59:26;25.10;99.90
5508;DHT22;2776;51.046;6.772;2023-09-12T09:01:54;25.00;99.90
5508;DHT22;2776;51.046;6.772;2023-09-12T09:04:23;24.90;99.90
5508;DHT22;2776;51.046;6.772;2023-09-12T09:06:52;24.70;99.90
5508;DHT22;2776;51.046;6.772;2023-09-12T09:09:21;24.70;99.90
5508;DHT22;2776;51.046;6.772;2023-09-12T09:11:50;24.80;99.90
5508;DHT22;2776;51.046;6.772;2023-09-12T09:14:17;24.90;99.90
5508;DHT22;2776;51.046;6.772;2023-09-12T09:16:44;25.00;99.90
5508;DHT22;2776;51.046;6.772;2023-09-12T09:19:10;25.10;99.90
5508;DHT22;2776;51.046;6.772;2023-09-12T09:21:38;24.90;99.90
5508;DHT22;2776;51.046;6.772;2023-09-12T09:24:08;24.70;99.90
5508;DHT22;2776;51.046;6.772;2023-09-12T09:26:45;24.60;99.90
5508;DHT22;2776;51.046;6.772;2023-09-12T09:29:15;24.60;99.90
5508;DHT22;2776;51.046;6.772;2023-09-12T09:31:44;24.60;99.90
5508;DHT22;2776;51.046;6.772;2023-09-12T09:34:12;24.50;99.90
5508;DHT22;2776;51.046;6.772;2023-09-12T09:36:41;24.50;99.90
5508;DHT22;2776;51.046;6.772;2023-09-12T09:39:09;24.60;99.90
5508;DHT22;2776;51.046;6.772;2023-09-12T09:41:36;24.70;99.90
5508;DHT22;2776;51.046;6.772;2023-09-12T09:44:04;24.90;99.90
5508;DHT22;2776;51.046;6.772;2023-09-12T09:46:32;24.90;99.90
5508;DHT22;2776;51.046;6.772;2023-09-12T09:48:59;25.00;99.90
5508;DHT22;2776;51.046;6.772;2023-09-12T09:51:26;25.00;99.90
5508;DHT22;2776;51.046;6.772;2023-09-12T09:53:53;25.00;99.90
5508;DHT22;2776;51.046;6.772;2023-09-12T09:56:24;25.10;99.90
5508;DHT22;2776;51.046;6.772;2023-09-12T09:58:53;25.10;99.90
5508;DHT22;2776;51.046;6.772;2023-09-12T10:01:21;25.10;99.90
5508;DHT22;2776;51.046;6.772;2023-09-12T10:03:50;25.10;99.90
5508;DHT22;2776;51.046;6.772;2023-09-12T10:06:18;25.10;99.90
5508;DHT22;2776;51.046;6.772;2023-09-12T10:08:52;25.10;99.90
5508;DHT22;2776;51.046;6.772;2023-09-12T10:11:22;25.20;99.90
5508;DHT22;2776;51.046;6.772;2023-09-12T10:13:53;25.20;99.90
5508;DHT22;2776;51.046;6.772;2023-09-12T10:16:21;25.20;99.90
5508;DHT22;2776;51.046;6.772;2023-09-12T10:18:57;25.20;99.90
5508;DHT22;2776;51.046;6.772;2023-09-12T10:21:29;25.20;99.90
5508;DHT22;2776;51.046;6.772;2023-09-12T10:23:58;25.20;99.90
5508;DHT22;2776;51.046;6.772;2023-09-12T10:26:25;25.20;99.90
5508;DHT22;2776;51.046;6.772;2023-09-12T10:28:52;25.20;99.90
5508;DHT22;2776;51.046;6.772;2023-09-12T10:31:20;25.20;99.90
5508;DHT22;2776;51.046;6.772;2023-09-12T10:33:53;25.20;99.90
5508;DHT22;2776;51.046;6.772;2023-09-12T10:36:20;25.30;99.90
5508;DHT22;2776;51.046;6.772;2023-09-12T10:38:48;25.40;99.90
5508;DHT22;2776;51.046;6.772;2023-09-12T10:41:16;25.60;99.90
5508;DHT22;2776;51.046;6.772;2023-09-12T10:43:44;25.70;99.90
5508;DHT22;2776;51.046;6.772;2023-09-12T10:46:15;25.80;99.90
5508;DHT22;2776;51.046;6.772;2023-09-12T10:48:42;26.00;99.90
5508;DHT22;2776;51.046;6.772;2023-09-12T10:51:11;26.20;99.90
5508;DHT22;2776;51.046;6.772;2023-09-12T10:53:39;26.40;99.90
5508;DHT22;2776;51.046;6.772;2023-09-12T10:56:17;26.50;99.90
5508;DHT22;2776;51.046;6.772;2023-09-12T10:59:09;26.40;99.90
5508;DHT22;2776;51.046;6.772;2023-09-12T11:01:38;26.40;99.90
5508;DHT22;2776;51.046;6.772;2023-09-12T11:04:29;26.40;99.90
5508;DHT22;2776;51.046;6.772;2023-09-12T11:07:00;26.40;99.90
5508;DHT22;2776;51.046;6.772;2023-09-12T11:09:27;26.40;99.90
5508;DHT22;2776;51.046;6.772;2023-09-12T11:11:59;26.40;99.90
5508;DHT22;2776;51.046;6.772;2023-09-12T11:14:28;26.40;99.90
5508;DHT22;2776;51.046;6.772;2023-09-12T11:17:22;26.40;99.90
5508;DHT22;2776;51.046;6.772;2023-09-12T11:19:50;26.40;99.90
5508;DHT22;2776;51.046;6.772;2023-09-12T11:22:24;26.30;99.90
5508;DHT22;2776;51.046;6.772;2023-09-12T11:24:51;26.30;99.90
5508;DHT22;2776;51.046;6.772;2023-09-12T11:27:18;26.40;99.90
5508;DHT22;2776;51.046;6.772;2023-09-12T11:29:46;26.40;99.90
5508;DHT22;2776;51.046;6.772;2023-09-12T11:32:25;26.40;99.90
5508;DHT22;2776;51.046;6.772;2023-09-12T11:34:53;26.40;99.90
5508;DHT22;2776;51.046;6.772;2023-09-12T11:37:24;26.50;99.90
5508;DHT22;2776;51.046;6.772;2023-09-12T11:39:52;26.50;99.90
5508;DHT22;2776;51.046;6.772;2023-09-12T11:42:20;26.60;99.90
5508;DHT22;2776;51.046;6.772;2023-09-12T11:44:48;26.50;99.90
5508;DHT22;2776;51.046;6.772;2023-09-12T11:47:15;26.50;99.90
5508;DHT22;2776;51.046;6.772;2023-09-12T11:49:42;26.50;99.90
5508;DHT22;2776;51.046;6.772;2023-09-12T11:52:10;26.50;99.90
5508;DHT22;2776;51.046;6.772;2023-09-12T11:54:39;26.60;99.90
5508;DHT22;2776;51.046;6.772;2023-09-12T11:57:07;26.40;99.90
5508;DHT22;2776;51.046;6.772;2023-09-12T11:59:37;26.50;99.90
5508;DHT22;2776;51.046;6.772;2023-09-12T12:02:07;26.40;99.90
5508;DHT22;2776;51.046;6.772;2023-09-12T12:04:34;26.40;99.90
5508;DHT22;2776;51.046;6.772;2023-09-12T12:07:02;26.40;99.90
5508;DHT22;2776;51.046;6.772;2023-09-12T12:09:30;26.40;99.90
5508;DHT22;2776;51.046;6.772;2023-09-12T12:12:03;26.50;99.90
5508;DHT22;2776;51.046;6.772;2023-09-12T12:14:33;26.60;99.90
5508;DHT22;2776;51.046;6.772;2023-09-12T12:17:06;26.60;99.90
5508;DHT22;2776;51.046;6.772;2023-09-12T12:19:33;26.60;99.90
5508;DHT22;2776;51.046;6.772;2023-09-12T12:22:02;26.60;99.90
5508;DHT22;2776;51.046;6.772;2023-09-12T12:24:37;26.70;99.90
5508;DHT22;2776;51.046;6.772;2023-09-12T12:27:06;26.70;99.90
5508;DHT22;2776;51.046;6.772;2023-09-12T12:29:37;26.80;99.90
5508;DHT22;2776;51.046;6.772;2023-09-12T12:32:06;26.80;99.90
5508;DHT22;2776;51.046;6.772;2023-09-12T12:34:34;26.80;99.90
5508;DHT22;2776;51.046;6.772;2023-09-12T12:37:01;26.80;99.90
5508;DHT22;2776;51.046;6.772;2023-09-12T12:39:28;26.80;99.90
5508;DHT22;2776;51.046;6.772;2023-09-12T12:41:55;26.90;99.90
5508;DHT22;2776;51.046;6.772;2023-09-12T12:44:32;27.00;99.90
5508;DHT22;2776;51.046;6.772;2023-09-12T12:47:04;27.00;99.90
5508;DHT22;2776;51.046;6.772;2023-09-12T12:49:36;27.10;99.90
5508;DHT22;2776;51.046;6.772;2023-09-12T12:52:04;27.10;99.90
5508;DHT22;2776;51.046;6.772;2023-09-12T12:54:31;27.10;99.90
5508;DHT22;2776;51.046;6.772;2023-09-12T12:56:59;27.10;99.90
5508;DHT22;2776;51.046;6.772;2023-09-12T12:59:27;27.00;99.90
5508;DHT22;2776;51.046;6.772;2023-09-12T13:01:55;27.10;99.90
5508;DHT22;2776;51.046;6.772;2023-09-12T13:04:24;27.20;99.90
5508;DHT22;2776;51.046;6.772;2023-09-12T13:06:50;27.20;99.90
5508;DHT22;2776;51.046;6.772;2023-09-12T13:09:17;27.20;99.90
5508;DHT22;2776;51.046;6.772;2023-09-12T13:11:45;27.20;99.90
5508;DHT22;2776;51.046;6.772;2023-09-12T13:14:12;27.00;99.90
5508;DHT22;2776;51.046;6.772;2023-09-12T13:16:40;27.00;99.90
5508;DHT22;2776;51.046;6.772;2023-09-12T13:19:07;27.00;99.90
5508;DHT22;2776;51.046;6.772;2023-09-12T13:21:33;27.10;99.90
5508;DHT22;2776;51.046;6.772;2023-09-12T13:24:00;27.10;99.90
5508;DHT22;2776;51.046;6.772;2023-09-12T13:26:27;27.20;99.90
5508;DHT22;2776;51.046;6.772;2023-09-12T13:28:54;27.20;99.90
5508;DHT22;2776;51.046;6.772;2023-09-12T13:31:21;27.30;99.90
5508;DHT22;2776;51.046;6.772;2023-09-12T13:33:49;27.30;99.90
5508;DHT22;2776;51.046;6.772;2023-09-12T13:36:15;27.30;99.90
5508;DHT22;2776;51.046;6.772;2023-09-12T13:38:42;27.30;99.90
5508;DHT22;2776;51.046;6.772;2023-09-12T13:41:09;27.30;99.90
5508;DHT22;2776;51.046;6.772;2023-09-12T13:43:35;27.30;99.90
5508;DHT22;2776;51.046;6.772;2023-09-12T13:46:02;27.30;99.90
5508;DHT22;2776;51.046;6.772;2023-09-12T13:48:29;27.40;99.90
5508;DHT22;2776;51.046;6.772;2023-09-12T13:50:57;27.40;99.90
5508;DHT22;2776;51.046;6.772;2023-09-12T13:53:24;27.50;99.90
5508;DHT22;2776;51.046;6.772;2023-09-12T13:55:50;27.60;99.90
5508;DHT22;2776;51.046;6.772;2023-09-12T13:58:17;27.60;99.90
5508;DHT22;2776;51.046;6.772;2023-09-12T14:00:44;27.70;99.90
5508;DHT22;2776;51.046;6.772;2023-09-12T14:03:11;27.70;99.90
5508;DHT22;2776;51.046;6.772;2023-09-12T14:05:38;27.70;99.90
5508;DHT22;2776;51.046;6.772;2023-09-12T14:08:06;27.70;99.90
5508;DHT22;2776;51.046;6.772;2023-09-12T14:10:33;27.70;99.90
5508;DHT22;2776;51.046;6.772;2023-09-12T14:12:59;27.80;99.90
5508;DHT22;2776;51.046;6.772;2023-09-12T14:15:26;27.90;99.90
5508;DHT22;2776;51.046;6.772;2023-09-12T14:17:53;27.90;99.90
5508;DHT22;2776;51.046;6.772;2023-09-12T14:20:19;27.80;99.90
5508;DHT22;2776;51.046;6.772;2023-09-12T14:22:46;27.70;99.90
5508;DHT22;2776;51.046;6.772;2023-09-12T14:25:14;27.70;99.90
5508;DHT22;2776;51.046;6.772;2023-09-12T14:27:42;27.70;99.90
5508;DHT22;2776;51.046;6.772;2023-09-12T14:30:10;27.50;99.90
5508;DHT22;2776;51.046;6.772;2023-09-12T14:32:38;27.50;99.90
5508;DHT22;2776;51.046;6.772;2023-09-12T14:35:06;27.40;99.90
5508;DHT22;2776;51.046;6.772;2023-09-12T14:37:33;27.40;99.90
5508;DHT22;2776;51.046;6.772;2023-09-12T14:40:02;27.30;99.90
5508;DHT22;2776;51.046;6.772;2023-09-12T14:42:31;27.30;99.90
5508;DHT22;2776;51.046;6.772;2023-09-12T14:44:58;27.30;99.90
5508;DHT22;2776;51.046;6.772;2023-09-12T14:47:24;27.30;99.90
5508;DHT22;2776;51.046;6.772;2023-09-12T14:49:53;27.30;99.90
5508;DHT22;2776;51.046;6.772;2023-09-12T14:52:19;27.40;99.90
5508;DHT22;2776;51.046;6.772;2023-09-12T14:54:47;27.40;99.90
5508;DHT22;2776;51.046;6.772;2023-09-12T14:57:13;27.40;99.90
5508;DHT22;2776;51.046;6.772;2023-09-12T14:59:41;27.30;99.90
5508;DHT22;2776;51.046;6.772;2023-09-12T15:02:08;27.30;99.90
5508;DHT22;2776;51.046;6.772;2023-09-12T15:04:35;27.30;99.90
5508;DHT22;2776;51.046;6.772;2023-09-12T15:07:01;27.40;99.90
5508;DHT22;2776;51.046;6.772;2023-09-12T15:09:28;27.30;99.90
5508;DHT22;2776;51.046;6.772;2023-09-12T15:11:55;27.40;99.90
5508;DHT22;2776;51.046;6.772;2023-09-12T15:14:22;27.50;99.90
5508;DHT22;2776;51.046;6.772;2023-09-12T15:16:50;27.50;99.90
5508;DHT22;2776;51.046;6.772;2023-09-12T15:19:17;27.60;99.90
5508;DHT22;2776;51.046;6.772;2023-09-12T15:21:43;27.60;99.90
5508;DHT22;2776;51.046;6.772;2023-09-12T15:24:10;27.70;99.90
5508;DHT22;2776;51.046;6.772;2023-09-12T15:26:37;27.60;99.90
5508;DHT22;2776;51.046;6.772;2023-09-12T15:29:04;27.60;99.90
5508;DHT22;2776;51.046;6.772;2023-09-12T15:31:33;27.60;99.90
5508;DHT22;2776;51.046;6.772;2023-09-12T15:34:02;27.60;99.90
5508;DHT22;2776;51.046;6.772;2023-09-12T15:36:29;27.50;99.90
5508;DHT22;2776;51.046;6.772;2023-09-12T15:38:55;27.50;99.90
5508;DHT22;2776;51.046;6.772;2023-09-12T15:41:23;27.40;99.90
5508;DHT22;2776;51.046;6.772;2023-09-12T15:43:50;27.40;99.90
5508;DHT22;2776;51.046;6.772;2023-09-12T15:46:16;27.50;99.90
5508;DHT22;2776;51.046;6.772;2023-09-12T15:48:43;27.40;99.90
5508;DHT22;2776;51.046;6.772;2023-09-12T15:51:11;27.50;99.90
5508;DHT22;2776;51.046;6.772;2023-09-12T15:53:38;27.50;99.90
5508;DHT22;2776;51.046;6.772;2023-09-12T15:56:05;27.40;99.90
5508;DHT22;2776;51.046;6.772;2023-09-12T15:58:32;27.40;99.90
5508;DHT22;2776;51.046;6.772;2023-09-12T16:00:59;27.40;99.90
5508;DHT22;2776;51.046;6.772;2023-09-12T16:03:28;27.20;99.90
5508;DHT22;2776;51.046;6.772;2023-09-12T16:05:55;27.20;99.90